Resums METAR propers

 

LEGE - Gerona/Costa Bra, Spain
DistÓncia des de l'estaciˇ: S 12km
Actualitzaciˇ: 07/03/2021 07:00
Molt cobert
Molt cobert
 Vent del NE
Vent: NE 6 km/h
Temperatura: 45°F , 7°C
Rosada: 43°F , 6°C
Humitat: 93%
Bar˛metre: 1021 hPa
Nuvolositat: Molt cobert
Visibilitat: 8 km
Detalls nuvolositat: Molt cobert 5800 ft
2021/03/07 06:00 LEGE 070600Z 04003KT 8000 BKN058 07/06 Q1021